Time;durP1;ratioP1;P1;durP2;ratioP2;P2;SDS_P1;SDS_P2;PMS_P1;PMS_P2;Temp;Humidity;BMP_temperature;BMP_pressure;BME280_temperature;BME280_humidity;BME280_pressure;Samples;Min_cycle;Max_cycle;Signal;HPM_P1;HPM_P2
2023/05/25 00:00:43;;;;;;;7.10;5.15;;;;;;;;;;2047611;29;20027;-88
2023/05/25 00:01:47;;;;;;;8.90;5.82;;;;;;;;;;2047781;29;20057;-88
2023/05/25 00:02:49;;;;;;;8.50;5.13;;;;;;;;;;2047814;28;20094;-88
2023/05/25 00:03:51;;;;;;;6.13;4.85;;;;;;;;;;2047439;29;20036;-90
2023/05/25 00:04:52;;;;;;;7.20;4.93;;;;;;;;;;2047891;29;20019;-89
2023/05/25 00:05:52;;;;;;;6.45;4.68;;;;;;;;;;2048648;28;20488;-89
2023/05/25 00:06:53;;;;;;;7.43;5.40;;;;;;;;;;2047967;29;20038;-89
2023/05/25 00:07:54;;;;;;;8.05;5.15;;;;;;;;;;2040190;29;20102;-89
2023/05/25 00:08:56;;;;;;;8.70;4.80;;;;;;;;;;2047695;29;20071;-88
2023/05/25 00:09:56;;;;;;;10.88;5.47;;;;;;;;;;2047925;29;20589;-88
2023/05/25 00:10:57;;;;;;;9.32;5.25;;;;;;;;;;2048036;29;20083;-88
2023/05/25 00:11:58;;;;;;;8.70;5.07;;;;;;;;;;2048026;29;20535;-89
2023/05/25 00:12:59;;;;;;;6.25;5.50;;;;;;;;;;2047879;29;20023;-89
2023/05/25 00:13:59;;;;;;;8.93;5.10;;;;;;;;;;2040076;29;20149;-89
2023/05/25 00:15:00;;;;;;;7.25;5.05;;;;;;;;;;2048328;29;20077;-89
2023/05/25 00:16:00;;;;;;;9.38;5.57;;;;;;;;;;2048634;29;20031;-89
2023/05/25 00:17:02;;;;;;;9.55;5.20;;;;;;;;;;2047629;29;20540;-89
2023/05/25 00:18:03;;;;;;;6.53;4.55;;;;;;;;;;2039785;29;20067;-89
2023/05/25 00:19:05;;;;;;;8.68;4.82;;;;;;;;;;2047314;29;20141;-89
2023/05/25 00:20:07;;;;;;;7.32;4.93;;;;;;;;;;2047593;29;20023;-89
2023/05/25 00:21:09;;;;;;;6.38;5.07;;;;;;;;;;2047786;28;20739;-89
2023/05/25 00:22:10;;;;;;;5.80;4.80;;;;;;;;;;2047305;29;20305;-90
2023/05/25 00:23:10;;;;;;;7.65;4.68;;;;;;;;;;2047493;29;20067;-88
2023/05/25 00:24:11;;;;;;;6.75;4.85;;;;;;;;;;2048359;28;20023;-88
2023/05/25 00:25:11;;;;;;;7.82;4.95;;;;;;;;;;2048041;28;20440;-89
2023/05/25 00:26:12;;;;;;;6.60;5.00;;;;;;;;;;2047611;29;20027;-90
2023/05/25 00:27:12;;;;;;;7.68;5.78;;;;;;;;;;2047998;29;20023;-89
2023/05/25 00:28:13;;;;;;;6.10;5.28;;;;;;;;;;2048982;29;20415;-88
2023/05/25 00:29:13;;;;;;;8.77;5.00;;;;;;;;;;2048012;29;20031;-88
2023/05/25 00:30:14;;;;;;;5.50;4.68;;;;;;;;;;2048036;29;20046;-88
2023/05/25 00:31:16;;;;;;;8.02;5.20;;;;;;;;;;2047918;29;20069;-89
2023/05/25 00:32:17;;;;;;;7.20;5.15;;;;;;;;;;2039879;29;20020;-89
2023/05/25 00:33:17;;;;;;;8.80;5.07;;;;;;;;;;2047711;29;20023;-89
2023/05/25 00:34:18;;;;;;;6.80;5.15;;;;;;;;;;2048810;28;20011;-89
2023/05/25 00:35:18;;;;;;;9.05;5.32;;;;;;;;;;2050624;29;20023;-88
2023/05/25 00:36:19;;;;;;;7.32;5.10;;;;;;;;;;2040947;29;20552;-88
2023/05/25 00:37:19;;;;;;;7.82;5.15;;;;;;;;;;2047968;29;20026;-88
2023/05/25 00:38:21;;;;;;;9.02;5.22;;;;;;;;;;2048274;29;20015;-88
2023/05/25 00:39:22;;;;;;;6.50;5.20;;;;;;;;;;2047931;29;20635;-88
2023/05/25 00:40:22;;;;;;;7.07;5.47;;;;;;;;;;2048112;29;20027;-88
2023/05/25 00:41:24;;;;;;;9.77;5.53;;;;;;;;;;2048213;29;20049;-88
2023/05/25 00:42:26;;;;;;;8.23;5.43;;;;;;;;;;2047993;29;20023;-89
2023/05/25 00:43:27;;;;;;;8.30;5.32;;;;;;;;;;2048213;29;20043;-89
2023/05/25 00:44:28;;;;;;;7.60;5.32;;;;;;;;;;2047737;29;20530;-89
2023/05/25 00:45:28;;;;;;;9.00;5.50;;;;;;;;;;2047885;29;20407;-89
2023/05/25 00:46:30;;;;;;;8.30;5.43;;;;;;;;;;2048713;28;20059;-88
2023/05/25 00:47:31;;;;;;;7.82;5.32;;;;;;;;;;2048873;28;20510;-88
2023/05/25 00:48:32;;;;;;;9.43;5.57;;;;;;;;;;2048838;28;20472;-89
2023/05/25 00:49:35;;;;;;;6.43;5.03;;;;;;;;;;1687739;29;10357655;-88
2023/05/25 00:50:39;;;;;;;10.40;5.53;;;;;;;;;;2041124;28;20126;-88
2023/05/25 00:51:40;;;;;;;9.65;5.82;;;;;;;;;;2048058;29;20035;-88
2023/05/25 00:52:40;;;;;;;7.85;5.20;;;;;;;;;;2049875;29;20035;-89
2023/05/25 00:53:41;;;;;;;7.20;5.43;;;;;;;;;;2051009;28;20024;-87
2023/05/25 00:54:43;;;;;;;9.40;5.32;;;;;;;;;;2050666;28;20070;-88
2023/05/25 00:56:13;;;;;;;6.95;5.55;;;;;;;;;;2048925;28;20349;-87
2023/05/25 00:57:16;;;;;;;7.68;5.20;;;;;;;;;;2048445;29;20446;-89
2023/05/25 00:58:20;;;;;;;7.43;5.18;;;;;;;;;;2048713;29;20026;-90
2023/05/25 00:59:27;;;;;;;9.85;5.70;;;;;;;;;;2048817;28;20042;-89
2023/05/25 01:00:36;;;;;;;8.48;5.28;;;;;;;;;;1818730;28;10272448;-90
2023/05/25 01:01:54;;;;;;;8.55;5.95;;;;;;;;;;2048910;29;20342;-89
2023/05/25 01:02:56;;;;;;;10.10;5.13;;;;;;;;;;2048029;29;20149;-88
2023/05/25 01:03:58;;;;;;;8.35;5.25;;;;;;;;;;2048524;29;20031;-89
2023/05/25 01:05:04;;;;;;;6.25;5.07;;;;;;;;;;2048382;28;20439;-89
2023/05/25 01:06:12;;;;;;;8.85;5.47;;;;;;;;;;2048634;28;20042;-89
2023/05/25 01:07:16;;;;;;;5.75;4.78;;;;;;;;;;2048895;28;20051;-89
2023/05/25 01:08:20;;;;;;;7.75;5.38;;;;;;;;;;2048936;28;20019;-89
2023/05/25 01:09:21;;;;;;;8.65;5.88;;;;;;;;;;2048008;29;20167;-89
2023/05/25 01:10:23;;;;;;;6.93;5.57;;;;;;;;;;2048245;29;20117;-90
2023/05/25 01:11:32;;;;;;;7.60;5.35;;;;;;;;;;2048230;29;20116;-89
2023/05/25 01:12:41;;;;;;;7.72;5.63;;;;;;;;;;2048259;29;20035;-90
2023/05/25 01:13:41;;;;;;;8.63;5.38;;;;;;;;;;2041173;28;20028;-89
2023/05/25 01:14:42;;;;;;;7.45;5.43;;;;;;;;;;2047697;29;20182;-89
2023/05/25 01:15:44;;;;;;;6.32;5.10;;;;;;;;;;2047819;29;20054;-90
2023/05/25 01:16:45;;;;;;;8.88;5.28;;;;;;;;;;2040317;29;20114;-90
2023/05/25 01:17:52;;;;;;;8.82;5.80;;;;;;;;;;2037961;29;20128;-90
2023/05/25 01:18:53;;;;;;;6.43;5.25;;;;;;;;;;2048113;29;20110;-90
2023/05/25 01:19:53;;;;;;;9.07;5.12;;;;;;;;;;1684190;29;10442639;-89
2023/05/25 01:20:58;;;;;;;6.68;5.15;;;;;;;;;;2047649;29;20422;-90
2023/05/25 01:22:37;;;;;;;7.15;5.38;;;;;;;;;;2048427;28;20031;-88
2023/05/25 01:23:46;;;;;;;9.98;5.60;;;;;;;;;;2035357;29;20035;-88
2023/05/25 01:24:55;;;;;;;6.72;5.13;;;;;;;;;;2047708;29;20035;-88
2023/05/25 01:25:58;;;;;;;10.07;5.50;;;;;;;;;;2047659;29;20459;-88
2023/05/25 01:27:27;;;;;;;7.75;5.75;;;;;;;;;;2042557;29;20024;-88
2023/05/25 01:28:34;;;;;;;7.63;5.68;;;;;;;;;;2047941;29;20466;-88
2023/05/25 01:29:36;;;;;;;7.65;4.95;;;;;;;;;;2047967;29;20033;-88
2023/05/25 01:30:40;;;;;;;6.65;4.97;;;;;;;;;;2039853;29;20054;-89
2023/05/25 01:31:42;;;;;;;8.02;5.65;;;;;;;;;;2047672;29;20059;-88
2023/05/25 01:32:44;;;;;;;6.82;5.22;;;;;;;;;;2047671;29;20027;-88
2023/05/25 01:33:46;;;;;;;6.30;5.47;;;;;;;;;;2047512;29;20035;-88
2023/05/25 01:34:47;;;;;;;10.57;5.30;;;;;;;;;;2051113;29;20027;-86
2023/05/25 01:35:48;;;;;;;8.70;5.85;;;;;;;;;;2045757;29;20030;-86
2023/05/25 01:36:54;;;;;;;9.57;5.75;;;;;;;;;;1889927;29;10003305;-87
2023/05/25 01:37:57;;;;;;;10.18;6.22;;;;;;;;;;2053936;29;20236;-87
2023/05/25 01:38:58;;;;;;;9.20;5.80;;;;;;;;;;2051573;28;20023;-88
2023/05/25 01:39:58;;;;;;;8.82;5.20;;;;;;;;;;2048503;28;20051;-89
2023/05/25 01:40:59;;;;;;;9.27;5.80;;;;;;;;;;2048576;29;20122;-89
2023/05/25 01:42:00;;;;;;;7.63;5.72;;;;;;;;;;2040187;29;20034;-89
2023/05/25 01:43:01;;;;;;;8.88;5.07;;;;;;;;;;2040543;29;20437;-90
2023/05/25 01:44:02;;;;;;;8.50;5.47;;;;;;;;;;2040466;29;20030;-89
2023/05/25 01:45:03;;;;;;;10.98;5.57;;;;;;;;;;2048035;29;20031;-88
2023/05/25 01:46:30;;;;;;;10.65;5.93;;;;;;;;;;2047647;29;20114;-90
2023/05/25 01:47:45;;;;;;;7.95;5.68;;;;;;;;;;2057971;28;20019;-89
2023/05/25 01:49:25;;;;;;;11.63;5.57;;;;;;;;;;2057159;28;20079;-90
2023/05/25 01:50:38;;;;;;;7.03;5.43;;;;;;;;;;2057891;28;20012;-89
2023/05/25 01:51:51;;;;;;;8.88;5.35;;;;;;;;;;2057449;28;20031;-90
2023/05/25 01:52:58;;;;;;;7.07;5.18;;;;;;;;;;2048662;28;20102;-89
2023/05/25 01:54:06;;;;;;;8.65;5.70;;;;;;;;;;2047281;29;20415;-89
2023/05/25 01:55:16;;;;;;;7.05;5.22;;;;;;;;;;2047813;29;20325;-89
2023/05/25 01:56:20;;;;;;;6.40;5.18;;;;;;;;;;2047562;28;20019;-89
2023/05/25 01:57:21;;;;;;;8.15;5.68;;;;;;;;;;2046918;29;20453;-90
2023/05/25 01:58:23;;;;;;;6.03;5.15;;;;;;;;;;2039016;29;20028;-89
2023/05/25 01:59:25;;;;;;;7.47;5.28;;;;;;;;;;2046803;29;20065;-89
2023/05/25 02:00:30;;;;;;;8.98;5.35;;;;;;;;;;2047712;28;20054;-89
2023/05/25 02:01:32;;;;;;;7.35;5.55;;;;;;;;;;2050224;28;20027;-88
2023/05/25 02:02:33;;;;;;;9.45;5.45;;;;;;;;;;2047387;28;20031;-89
2023/05/25 02:03:35;;;;;;;8.68;5.50;;;;;;;;;;2046819;29;20407;-89
2023/05/25 02:04:35;;;;;;;9.23;6.15;;;;;;;;;;2046737;29;20031;-89
2023/05/25 02:05:36;;;;;;;8.15;5.30;;;;;;;;;;2051378;29;20057;-89
2023/05/25 02:06:37;;;;;;;5.75;5.10;;;;;;;;;;2057509;28;20034;-89
2023/05/25 02:07:38;;;;;;;11.65;5.63;;;;;;;;;;2057208;28;20131;-89
2023/05/25 02:08:38;;;;;;;7.40;5.53;;;;;;;;;;1709299;29;10003111;-89
2023/05/25 02:09:39;;;;;;;6.55;4.97;;;;;;;;;;2057301;28;20062;-89
2023/05/25 02:10:39;;;;;;;8.93;5.45;;;;;;;;;;2056174;28;20019;-88
2023/05/25 02:11:40;;;;;;;8.60;5.57;;;;;;;;;;2049492;28;20050;-88
2023/05/25 02:12:40;;;;;;;10.77;5.50;;;;;;;;;;2048362;28;20030;-88
2023/05/25 02:13:40;;;;;;;9.18;6.72;;;;;;;;;;2047727;28;20039;-88
2023/05/25 02:14:41;;;;;;;8.73;5.22;;;;;;;;;;2050152;28;20030;-88
2023/05/25 02:15:41;;;;;;;6.68;5.40;;;;;;;;;;2047687;28;20561;-88
2023/05/25 02:16:44;;;;;;;7.10;5.60;;;;;;;;;;2047259;28;20363;-88
2023/05/25 02:17:45;;;;;;;11.32;5.90;;;;;;;;;;2047204;28;20059;-88
2023/05/25 02:18:45;;;;;;;9.80;5.30;;;;;;;;;;2049876;29;20131;-89
2023/05/25 02:19:47;;;;;;;8.45;5.45;;;;;;;;;;2039117;29;20028;-88
2023/05/25 02:20:48;;;;;;;6.78;5.10;;;;;;;;;;2046925;28;20535;-88
2023/05/25 02:21:48;;;;;;;10.43;5.70;;;;;;;;;;2047058;28;20030;-88
2023/05/25 02:22:49;;;;;;;9.45;5.30;;;;;;;;;;2046723;29;20015;-89
2023/05/25 02:23:50;;;;;;;5.93;4.95;;;;;;;;;;2046637;29;20146;-89
2023/05/25 02:24:51;;;;;;;9.80;4.93;;;;;;;;;;2046440;29;20037;-89
2023/05/25 02:25:51;;;;;;;8.18;5.03;;;;;;;;;;2043097;29;20035;-89
2023/05/25 02:26:52;;;;;;;5.80;4.75;;;;;;;;;;2046954;29;20557;-89
2023/05/25 02:27:52;;;;;;;7.93;4.93;;;;;;;;;;2047229;28;20400;-88
2023/05/25 02:28:53;;;;;;;7.82;5.15;;;;;;;;;;2047400;28;20332;-89
2023/05/25 02:29:53;;;;;;;9.43;5.53;;;;;;;;;;2047229;28;20027;-89
2023/05/25 02:30:54;;;;;;;6.43;4.97;;;;;;;;;;2047266;28;20035;-89
2023/05/25 02:31:55;;;;;;;7.97;5.47;;;;;;;;;;2047081;28;20115;-88
2023/05/25 02:32:55;;;;;;;11.80;5.45;;;;;;;;;;2047049;28;20041;-89
2023/05/25 02:33:56;;;;;;;7.90;5.30;;;;;;;;;;2047044;28;20085;-89
2023/05/25 02:34:56;;;;;;;5.95;5.20;;;;;;;;;;2047052;28;20023;-88
2023/05/25 02:35:56;;;;;;;7.97;5.60;;;;;;;;;;2047257;28;20027;-88
2023/05/25 02:36:57;;;;;;;8.80;5.13;;;;;;;;;;2046852;28;20063;-89
2023/05/25 02:37:58;;;;;;;9.52;5.30;;;;;;;;;;2046390;29;20027;-89
2023/05/25 02:38:58;;;;;;;8.10;5.50;;;;;;;;;;2038586;29;20024;-89
2023/05/25 02:39:58;;;;;;;9.23;5.50;;;;;;;;;;2038899;29;20028;-89
2023/05/25 02:40:59;;;;;;;7.32;5.45;;;;;;;;;;2047562;29;20432;-89
2023/05/25 02:42:00;;;;;;;5.55;4.80;;;;;;;;;;2046372;29;20043;-89
2023/05/25 02:43:00;;;;;;;8.73;5.90;;;;;;;;;;2039943;29;20075;-88
2023/05/25 02:44:01;;;;;;;6.32;4.63;;;;;;;;;;2048465;29;20059;-87
2023/05/25 02:45:01;;;;;;;11.25;5.10;;;;;;;;;;2048758;29;20043;-88
2023/05/25 02:46:01;;;;;;;5.30;4.68;;;;;;;;;;2047274;29;20054;-89
2023/05/25 02:47:02;;;;;;;6.20;4.95;;;;;;;;;;2047405;29;20031;-89
2023/05/25 02:48:03;;;;;;;8.63;4.60;;;;;;;;;;2047659;29;20507;-89
2023/05/25 02:49:04;;;;;;;8.23;4.75;;;;;;;;;;2046933;29;20082;-89
2023/05/25 02:50:05;;;;;;;8.00;4.43;;;;;;;;;;2031072;29;20039;-88
2023/05/25 02:51:06;;;;;;;8.73;4.70;;;;;;;;;;1698777;29;10001103;-89
2023/05/25 02:52:06;;;;;;;8.07;5.15;;;;;;;;;;2047314;29;20027;-87
2023/05/25 02:53:07;;;;;;;5.63;5.03;;;;;;;;;;2038982;29;20035;-88
2023/05/25 02:54:07;;;;;;;6.40;5.20;;;;;;;;;;2048860;29;20038;-88
2023/05/25 02:55:09;;;;;;;10.05;5.80;;;;;;;;;;2047418;28;20106;-88
2023/05/25 02:56:09;;;;;;;6.28;4.63;;;;;;;;;;2046475;29;20038;-88
2023/05/25 02:57:10;;;;;;;6.75;4.78;;;;;;;;;;2040430;29;20016;-88
2023/05/25 02:58:11;;;;;;;7.30;5.05;;;;;;;;;;2042668;29;20032;-88
2023/05/25 02:59:12;;;;;;;6.70;4.90;;;;;;;;;;2039127;29;20054;-88
2023/05/25 03:00:13;;;;;;;5.57;4.93;;;;;;;;;;2047005;29;20042;-88
2023/05/25 03:01:17;;;;;;;8.63;5.47;;;;;;;;;;2047293;28;20023;-87
2023/05/25 03:02:19;;;;;;;10.20;5.03;;;;;;;;;;2046794;29;20015;-88
2023/05/25 03:03:20;;;;;;;8.13;5.25;;;;;;;;;;2038594;29;20020;-88
2023/05/25 03:04:20;;;;;;;8.43;4.63;;;;;;;;;;2046456;29;20359;-88
2023/05/25 03:05:21;;;;;;;6.90;5.55;;;;;;;;;;2046397;29;20023;-88
2023/05/25 03:06:21;;;;;;;14.10;5.93;;;;;;;;;;2038441;29;20472;-88
2023/05/25 03:07:25;;;;;;;10.73;5.35;;;;;;;;;;2038667;29;20423;-89
2023/05/25 03:08:25;;;;;;;8.02;5.18;;;;;;;;;;2046531;29;20065;-88
2023/05/25 03:09:26;;;;;;;7.78;5.32;;;;;;;;;;2047382;29;20023;-87
2023/05/25 03:10:27;;;;;;;5.80;4.78;;;;;;;;;;2049468;28;20023;-88
2023/05/25 03:11:27;;;;;;;8.88;4.75;;;;;;;;;;2047947;28;20058;-88
2023/05/25 03:12:27;;;;;;;7.82;5.28;;;;;;;;;;2046811;29;20591;-87
2023/05/25 03:13:28;;;;;;;7.45;5.68;;;;;;;;;;1696410;29;10248208;-88
2023/05/25 03:14:29;;;;;;;9.98;5.07;;;;;;;;;;2046834;29;20035;-88
2023/05/25 03:15:29;;;;;;;5.90;5.30;;;;;;;;;;2047181;29;20034;-88
2023/05/25 03:16:30;;;;;;;6.68;4.85;;;;;;;;;;2046903;29;20031;-87
2023/05/25 03:17:30;;;;;;;6.07;5.30;;;;;;;;;;2038657;29;20416;-88
2023/05/25 03:18:31;;;;;;;8.00;5.13;;;;;;;;;;2039103;29;20087;-88
2023/05/25 03:19:32;;;;;;;7.28;4.63;;;;;;;;;;2046976;29;20027;-87
2023/05/25 03:20:33;;;;;;;8.98;5.50;;;;;;;;;;2047691;28;20102;-87
2023/05/25 03:21:33;;;;;;;7.22;4.65;;;;;;;;;;2047077;29;20035;-88
2023/05/25 03:22:34;;;;;;;7.25;5.50;;;;;;;;;;1696958;29;10247502;-87
2023/05/25 03:23:34;;;;;;;6.38;5.20;;;;;;;;;;2046945;29;20381;-88
2023/05/25 03:24:35;;;;;;;9.13;5.57;;;;;;;;;;2046793;29;20019;-88
2023/05/25 03:25:35;;;;;;;6.45;5.50;;;;;;;;;;2046783;29;20031;-87
2023/05/25 03:26:36;;;;;;;9.60;5.10;;;;;;;;;;2046121;29;20039;-87
2023/05/25 03:27:36;;;;;;;8.82;5.43;;;;;;;;;;2038688;29;20023;-88
2023/05/25 03:28:36;;;;;;;10.73;5.57;;;;;;;;;;2038636;29;20467;-87
2023/05/25 03:29:37;;;;;;;6.65;4.80;;;;;;;;;;2038520;29;20369;-87
2023/05/25 03:30:37;;;;;;;7.93;5.32;;;;;;;;;;2046220;29;20031;-88
2023/05/25 03:31:38;;;;;;;10.32;5.13;;;;;;;;;;2047190;29;20024;-89
2023/05/25 03:32:38;;;;;;;10.48;5.72;;;;;;;;;;2045928;29;20090;-88
2023/05/25 03:33:38;;;;;;;7.63;5.22;;;;;;;;;;2046752;29;20102;-87
2023/05/25 03:34:39;;;;;;;7.03;5.32;;;;;;;;;;2046631;29;20498;-88
2023/05/25 03:35:40;;;;;;;8.88;5.22;;;;;;;;;;2046564;29;20504;-89
2023/05/25 03:36:44;;;;;;;10.45;5.78;;;;;;;;;;2047275;28;20137;-87
2023/05/25 03:37:45;;;;;;;6.85;5.38;;;;;;;;;;2048018;28;20023;-88
2023/05/25 03:38:45;;;;;;;8.80;5.38;;;;;;;;;;2048605;28;20070;-88
2023/05/25 03:39:45;;;;;;;7.93;5.60;;;;;;;;;;2048274;28;20035;-88
2023/05/25 03:40:46;;;;;;;8.20;4.93;;;;;;;;;;2047744;29;20054;-88
2023/05/25 03:41:47;;;;;;;6.78;5.40;;;;;;;;;;2047698;29;20024;-88
2023/05/25 03:42:48;;;;;;;9.32;4.90;;;;;;;;;;2048522;28;20411;-88
2023/05/25 03:43:49;;;;;;;6.78;4.82;;;;;;;;;;2047818;29;20038;-89
2023/05/25 03:44:49;;;;;;;10.05;5.18;;;;;;;;;;2047687;29;20557;-90
2023/05/25 03:45:50;;;;;;;7.80;5.45;;;;;;;;;;2048450;28;20031;-88
2023/05/25 03:46:50;;;;;;;6.70;5.65;;;;;;;;;;2048330;28;20031;-87
2023/05/25 03:47:51;;;;;;;8.68;5.75;;;;;;;;;;2047460;29;20033;-88
2023/05/25 03:48:51;;;;;;;8.10;6.90;;;;;;;;;;2047647;29;20066;-88
2023/05/25 03:49:51;;;;;;;7.28;5.63;;;;;;;;;;2055317;28;20030;-89
2023/05/25 03:50:53;;;;;;;10.95;5.97;;;;;;;;;;2047767;29;20023;-89
2023/05/25 03:51:53;;;;;;;7.68;5.40;;;;;;;;;;2039774;29;20131;-88
2023/05/25 03:52:54;;;;;;;11.48;5.22;;;;;;;;;;2047556;29;20027;-89
2023/05/25 03:53:54;;;;;;;8.30;6.32;;;;;;;;;;2048547;29;20043;-89
2023/05/25 03:54:55;;;;;;;11.07;5.85;;;;;;;;;;2048465;28;20027;-88
2023/05/25 03:55:56;;;;;;;9.13;5.85;;;;;;;;;;2048598;28;20479;-88
2023/05/25 03:56:58;;;;;;;7.70;5.40;;;;;;;;;;2048753;28;20439;-88
2023/05/25 03:57:58;;;;;;;7.88;5.60;;;;;;;;;;2048635;28;20054;-89
2023/05/25 03:58:59;;;;;;;10.68;6.20;;;;;;;;;;2048013;29;20035;-88
2023/05/25 03:59:59;;;;;;;11.80;6.00;;;;;;;;;;2048725;29;20027;-88
2023/05/25 04:01:01;;;;;;;7.18;5.53;;;;;;;;;;2042993;29;20484;-88
2023/05/25 04:02:02;;;;;;;9.15;6.07;;;;;;;;;;2048196;28;20097;-88
2023/05/25 04:03:02;;;;;;;8.48;6.05;;;;;;;;;;2047968;29;20098;-87
2023/05/25 04:04:03;;;;;;;9.50;5.68;;;;;;;;;;2048184;29;20031;-89
2023/05/25 04:05:05;;;;;;;7.85;5.68;;;;;;;;;;2048129;29;20045;-88
2023/05/25 04:06:06;;;;;;;7.68;5.15;;;;;;;;;;2040334;29;20472;-88
2023/05/25 04:07:07;;;;;;;7.70;5.10;;;;;;;;;;2039680;29;20043;-88
2023/05/25 04:08:08;;;;;;;9.52;5.20;;;;;;;;;;1696173;29;10294636;-88
2023/05/25 04:09:09;;;;;;;6.78;5.55;;;;;;;;;;2048460;28;20016;-88
2023/05/25 04:10:10;;;;;;;9.80;6.40;;;;;;;;;;2047888;29;20078;-88
2023/05/25 04:11:10;;;;;;;10.10;6.10;;;;;;;;;;2048229;28;20107;-89
2023/05/25 04:12:11;;;;;;;8.70;6.50;;;;;;;;;;2048713;28;20398;-88
2023/05/25 04:13:17;;;;;;;7.26;6.08;;;;;;;;;;1906867;28;10044390;-89
2023/05/25 04:14:19;;;;;;;8.52;6.40;;;;;;;;;;2048018;29;20332;-89
2023/05/25 04:15:20;;;;;;;7.35;5.85;;;;;;;;;;2048050;29;20023;-89
2023/05/25 04:16:21;;;;;;;8.23;5.10;;;;;;;;;;2048704;28;20106;-89
2023/05/25 04:17:24;;;;;;;10.73;5.57;;;;;;;;;;2048018;29;20035;-89
2023/05/25 04:18:24;;;;;;;8.70;5.30;;;;;;;;;;2042580;29;20119;-89
2023/05/25 04:19:24;;;;;;;7.22;5.45;;;;;;;;;;2046902;29;20067;-89
2023/05/25 04:20:25;;;;;;;9.82;5.30;;;;;;;;;;2050378;28;20020;-89
2023/05/25 04:21:25;;;;;;;7.78;5.20;;;;;;;;;;2055698;29;20031;-89
2023/05/25 04:22:26;;;;;;;8.13;4.90;;;;;;;;;;2055787;29;20015;-90
2023/05/25 04:23:26;;;;;;;9.88;5.50;;;;;;;;;;2053854;28;20352;-89
2023/05/25 04:24:27;;;;;;;7.30;5.15;;;;;;;;;;2051244;28;20387;-89
2023/05/25 04:25:27;;;;;;;9.27;5.30;;;;;;;;;;2048833;29;20083;-90
2023/05/25 04:26:28;;;;;;;7.32;4.75;;;;;;;;;;2048075;29;20058;-89
2023/05/25 04:27:28;;;;;;;7.57;4.88;;;;;;;;;;2048136;29;20034;-90
2023/05/25 04:28:29;;;;;;;6.35;5.35;;;;;;;;;;2047863;29;20122;-90
2023/05/25 04:29:30;;;;;;;8.40;5.70;;;;;;;;;;2048042;29;20042;-90
2023/05/25 04:30:31;;;;;;;9.52;5.75;;;;;;;;;;2048724;28;20078;-89
2023/05/25 04:31:31;;;;;;;6.13;4.78;;;;;;;;;;2047977;29;20423;-89
2023/05/25 04:32:36;;;;;;;6.80;4.38;;;;;;;;;;2040127;29;20028;-89
2023/05/25 04:33:37;;;;;;;7.50;4.47;;;;;;;;;;1686572;29;10422588;-87
2023/05/25 04:34:37;;;;;;;8.18;4.57;;;;;;;;;;2049524;29;20046;-88
2023/05/25 04:35:39;;;;;;;5.78;3.80;;;;;;;;;;2048835;29;20078;-89
2023/05/25 04:36:41;;;;;;;7.15;4.03;;;;;;;;;;2051979;29;20102;-88
2023/05/25 04:37:42;;;;;;;6.75;3.83;;;;;;;;;;2058270;28;20087;-89
2023/05/25 04:38:47;;;;;;;6.97;4.28;;;;;;;;;;2058612;28;20074;-89
2023/05/25 04:39:48;;;;;;;7.80;4.13;;;;;;;;;;2057830;28;20023;-90
2023/05/25 04:40:48;;;;;;;5.32;3.40;;;;;;;;;;2055388;29;20039;-89
2023/05/25 04:41:51;;;;;;;5.05;3.58;;;;;;;;;;2052268;28;20027;-89
2023/05/25 04:42:52;;;;;;;4.40;3.45;;;;;;;;;;2048657;28;20110;-89
2023/05/25 04:43:53;;;;;;;5.82;3.65;;;;;;;;;;2047913;29;20043;-89
2023/05/25 04:44:56;;;;;;;10.38;3.88;;;;;;;;;;2039740;29;20043;-90
2023/05/25 04:45:58;;;;;;;6.25;3.70;;;;;;;;;;2048283;29;20027;-90
2023/05/25 04:47:00;;;;;;;8.75;4.00;;;;;;;;;;2040381;29;20110;-89
2023/05/25 04:48:01;;;;;;;6.22;3.78;;;;;;;;;;2047878;29;20428;-89
2023/05/25 04:49:04;;;;;;;5.55;3.65;;;;;;;;;;2047954;28;20051;-88
2023/05/25 04:50:04;;;;;;;5.65;3.63;;;;;;;;;;2047886;29;20031;-89
2023/05/25 04:51:15;;;;;;;6.45;3.10;;;;;;;;;;2052882;28;20082;-87
2023/05/25 04:52:15;;;;;;;3.93;3.17;;;;;;;;;;2053504;29;20075;-87
2023/05/25 04:53:15;;;;;;;5.45;3.25;;;;;;;;;;2043545;29;20051;-87
2023/05/25 04:54:16;;;;;;;5.80;2.90;;;;;;;;;;2052684;29;20039;-88
2023/05/25 04:55:16;;;;;;;5.95;3.70;;;;;;;;;;2050396;28;20427;-89
2023/05/25 04:56:17;;;;;;;8.77;4.10;;;;;;;;;;2047954;29;20380;-89
2023/05/25 04:57:17;;;;;;;7.35;3.72;;;;;;;;;;2047964;29;20470;-88
2023/05/25 04:58:17;;;;;;;5.18;3.42;;;;;;;;;;2048652;29;20463;-89
2023/05/25 04:59:18;;;;;;;5.63;3.63;;;;;;;;;;2048595;28;20030;-88
2023/05/25 05:00:19;;;;;;;8.52;3.88;;;;;;;;;;1694544;29;10331532;-88
2023/05/25 05:01:19;;;;;;;6.45;3.47;;;;;;;;;;2047893;28;20307;-88
2023/05/25 05:02:20;;;;;;;6.05;4.63;;;;;;;;;;2048899;28;20405;-87
2023/05/25 05:03:21;;;;;;;3.90;3.20;;;;;;;;;;2047285;29;20023;-88
2023/05/25 05:04:21;;;;;;;6.70;3.75;;;;;;;;;;2047345;29;20499;-88
2023/05/25 05:05:21;;;;;;;8.82;3.38;;;;;;;;;;2048568;28;20023;-88
2023/05/25 05:06:24;;;;;;;4.85;3.72;;;;;;;;;;2048338;28;20407;-88
2023/05/25 05:07:25;;;;;;;9.18;3.53;;;;;;;;;;2047506;29;20062;-88
2023/05/25 05:08:25;;;;;;;10.05;4.30;;;;;;;;;;2039503;29;20028;-88
2023/05/25 05:09:25;;;;;;;5.50;3.55;;;;;;;;;;2047651;29;20033;-88
2023/05/25 05:10:26;;;;;;;4.88;4.20;;;;;;;;;;2047711;29;20118;-88
2023/05/25 05:11:27;;;;;;;5.82;3.70;;;;;;;;;;1705975;29;10000133;-89
2023/05/25 05:12:27;;;;;;;6.18;4.20;;;;;;;;;;2048378;28;20027;-88
2023/05/25 05:13:28;;;;;;;6.18;3.90;;;;;;;;;;2048376;28;20070;-89
2023/05/25 05:14:28;;;;;;;7.95;4.10;;;;;;;;;;2048376;28;20027;-89
2023/05/25 05:15:29;;;;;;;7.78;4.57;;;;;;;;;;2047860;29;20035;-88
2023/05/25 05:16:33;;;;;;;4.82;4.20;;;;;;;;;;2047793;29;20015;-88
2023/05/25 05:17:35;;;;;;;6.25;3.78;;;;;;;;;;2047569;29;20027;-88
2023/05/25 05:18:36;;;;;;;8.07;5.35;;;;;;;;;;2047593;29;20070;-90
2023/05/25 05:19:36;;;;;;;6.75;4.15;;;;;;;;;;2047573;29;20031;-89
2023/05/25 05:20:37;;;;;;;9.90;4.28;;;;;;;;;;2047581;29;20027;-90
2023/05/25 05:21:37;;;;;;;8.30;4.20;;;;;;;;;;2048098;28;20036;-89
2023/05/25 05:22:38;;;;;;;5.18;3.78;;;;;;;;;;2048166;28;20098;-90
2023/05/25 05:23:39;;;;;;;7.80;4.15;;;;;;;;;;2048090;28;20067;-89
2023/05/25 05:24:41;;;;;;;6.60;3.72;;;;;;;;;;2048271;28;20371;-90
2023/05/25 05:25:42;;;;;;;5.80;3.75;;;;;;;;;;2047550;29;20015;-90
2023/05/25 05:26:42;;;;;;;7.18;3.55;;;;;;;;;;2047377;29;20042;-89
2023/05/25 05:27:43;;;;;;;9.35;4.43;;;;;;;;;;2047608;29;20031;-90
2023/05/25 05:28:43;;;;;;;5.13;3.53;;;;;;;;;;2047656;29;20034;-89
2023/05/25 05:29:56;;;;;;;7.22;3.60;;;;;;;;;;2047542;29;20066;-89
2023/05/25 05:30:56;;;;;;;5.68;3.65;;;;;;;;;;2047622;29;20091;-88
2023/05/25 05:31:57;;;;;;;8.20;3.78;;;;;;;;;;2047722;28;20340;-90
2023/05/25 05:32:57;;;;;;;5.75;3.55;;;;;;;;;;2048206;28;20077;-90
2023/05/25 05:33:57;;;;;;;3.45;3.13;;;;;;;;;;2048051;28;20043;-91
2023/05/25 05:35:01;;;;;;;8.05;4.13;;;;;;;;;;2046927;29;20471;-89
2023/05/25 05:36:03;;;;;;;4.85;3.08;;;;;;;;;;2047583;28;20515;-89
2023/05/25 05:37:04;;;;;;;3.72;3.17;;;;;;;;;;2047452;29;20031;-90
2023/05/25 05:38:06;;;;;;;4.20;3.65;;;;;;;;;;2047633;29;20035;-89
2023/05/25 05:39:06;;;;;;;6.00;3.97;;;;;;;;;;2047323;29;20093;-90
2023/05/25 05:40:08;;;;;;;4.07;3.17;;;;;;;;;;2047494;29;20091;-89
2023/05/25 05:41:12;;;;;;;4.97;3.50;;;;;;;;;;2048302;28;20031;-90
2023/05/25 05:42:13;;;;;;;4.03;2.90;;;;;;;;;;2048126;28;20055;-89
2023/05/25 05:43:14;;;;;;;4.45;2.75;;;;;;;;;;2050120;28;20067;-89
2023/05/25 05:44:15;;;;;;;3.45;2.90;;;;;;;;;;2048440;28;20383;-91
2023/05/25 05:45:15;;;;;;;6.13;3.33;;;;;;;;;;2047371;29;20472;-91
2023/05/25 05:46:16;;;;;;;3.63;3.05;;;;;;;;;;2047707;29;20030;-89
2023/05/25 05:47:18;;;;;;;5.05;3.00;;;;;;;;;;2047508;29;20126;-90
2023/05/25 05:48:26;;;;;;;3.60;2.95;;;;;;;;;;2047390;29;20030;-90
2023/05/25 05:49:30;;;;;;;4.80;2.92;;;;;;;;;;2040437;29;20026;-93
2023/05/25 05:52:21;;;;;;;4.37;2.60;;;;;;;;;;2043328;29;20035;-90
2023/05/25 05:54:07;;;;;;;4.22;2.97;;;;;;;;;;2046558;29;20810;-90
2023/05/25 05:55:08;;;;;;;4.50;3.10;;;;;;;;;;2034006;29;20084;-89
2023/05/25 05:56:18;;;;;;;6.22;3.30;;;;;;;;;;2047587;29;20114;-90
2023/05/25 05:57:19;;;;;;;3.47;2.85;;;;;;;;;;2047550;29;20019;-90
2023/05/25 05:58:20;;;;;;;5.75;3.95;;;;;;;;;;2047349;29;20027;-89
2023/05/25 05:59:21;;;;;;;4.82;2.80;;;;;;;;;;2048078;28;20034;-88
2023/05/25 06:00:24;;;;;;;5.07;2.88;;;;;;;;;;2046974;28;20023;-90
2023/05/25 06:01:24;;;;;;;3.17;2.85;;;;;;;;;;2047735;28;20038;-90
2023/05/25 06:02:25;;;;;;;3.83;3.13;;;;;;;;;;2047967;28;20066;-90
2023/05/25 06:03:35;;;;;;;4.13;2.92;;;;;;;;;;2048049;28;20478;-90
2023/05/25 06:04:37;;;;;;;3.15;2.55;;;;;;;;;;2047908;28;20050;-89
2023/05/25 06:05:37;;;;;;;3.35;2.92;;;;;;;;;;2047854;29;20089;-90
2023/05/25 06:06:55;;;;;;;3.92;3.10;;;;;;;;;;2047085;29;20050;-90
2023/05/25 06:07:56;;;;;;;3.35;3.05;;;;;;;;;;2046619;29;20028;-91
2023/05/25 06:08:56;;;;;;;4.60;2.92;;;;;;;;;;2046968;29;20031;-89
2023/05/25 06:09:57;;;;;;;3.35;3.05;;;;;;;;;;2047566;29;20031;-90
2023/05/25 06:11:20;;;;;;;;;;;;;;;;;;;;;
2023/05/25 06:12:30;;;;;;;7.60;4.25;;;;;;;;;;2047132;28;20115;-91
2023/05/25 06:13:30;;;;;;;3.95;2.92;;;;;;;;;;2047861;28;20026;-90
2023/05/25 06:14:31;;;;;;;6.25;3.28;;;;;;;;;;2047868;28;20027;-89